createdAt,value
2017-10-17T00:00:31.864Z,13.10
2017-10-17T00:02:57.800Z,13.10
2017-10-17T00:05:31.073Z,13.10
2017-10-17T00:07:57.786Z,13.10
2017-10-17T00:10:24.521Z,13.10
2017-10-17T00:12:51.229Z,13.10
2017-10-17T00:15:17.905Z,13.00
2017-10-17T00:17:43.901Z,13.00
2017-10-17T00:20:09.923Z,13.00
2017-10-17T00:22:35.857Z,13.00
2017-10-17T00:25:01.829Z,13.00
2017-10-17T00:27:27.765Z,13.00
2017-10-17T00:29:53.740Z,12.90
2017-10-17T00:32:19.674Z,12.90
2017-10-17T00:34:45.626Z,12.90
2017-10-17T00:37:12.385Z,12.90
2017-10-17T00:39:38.381Z,12.90
2017-10-17T00:42:04.317Z,12.90
2017-10-17T00:44:30.289Z,12.90
2017-10-17T00:46:56.224Z,12.90
2017-10-17T00:49:22.204Z,12.90
2017-10-17T00:51:48.209Z,12.90
2017-10-17T00:54:14.892Z,12.80
2017-10-17T00:56:40.907Z,12.80
2017-10-17T00:59:06.886Z,12.70
2017-10-17T01:01:32.853Z,12.70
2017-10-17T01:03:59.531Z,12.70
2017-10-17T01:06:25.485Z,12.70
2017-10-17T01:08:52.153Z,12.60
2017-10-17T01:11:18.117Z,12.60
2017-10-17T01:13:44.817Z,12.60
2017-10-17T01:16:10.808Z,12.60
2017-10-17T01:18:36.779Z,12.60
2017-10-17T01:21:05.674Z,12.60
2017-10-17T01:23:33.408Z,12.50
2017-10-17T01:26:02.202Z,12.60
2017-10-17T01:28:28.165Z,12.60
2017-10-17T01:30:54.841Z,12.50
2017-10-17T01:33:20.808Z,12.50
2017-10-17T01:35:46.749Z,12.50
2017-10-17T01:38:17.729Z,12.50
2017-10-17T01:40:44.453Z,12.60
2017-10-17T01:43:11.949Z,12.60
2017-10-17T01:45:37.915Z,12.60
2017-10-17T01:48:07.517Z,12.50
2017-10-17T01:50:34.229Z,12.50
2017-10-17T01:53:05.867Z,12.50
2017-10-17T01:55:32.631Z,12.50
2017-10-17T01:57:59.526Z,12.50
2017-10-17T02:00:26.214Z,12.50
2017-10-17T02:02:52.185Z,12.40
2017-10-17T02:05:18.146Z,12.50
2017-10-17T02:07:54.922Z,12.50
2017-10-17T02:10:22.625Z,12.40
2017-10-17T02:12:48.582Z,12.30
2017-10-17T02:15:15.318Z,12.30
2017-10-17T02:17:47.006Z,12.30
2017-10-17T02:20:13.014Z,12.30
2017-10-17T02:22:38.987Z,12.30
2017-10-17T02:25:11.915Z,12.20
2017-10-17T02:27:37.866Z,12.30
2017-10-17T02:30:09.843Z,12.40
2017-10-17T02:32:35.786Z,12.30
2017-10-17T02:35:01.763Z,12.20
2017-10-17T02:37:27.709Z,12.20
2017-10-17T02:39:53.691Z,12.30
2017-10-17T02:42:19.639Z,12.20
2017-10-17T02:44:46.395Z,12.20
2017-10-17T02:47:12.358Z,12.20
2017-10-17T02:49:41.296Z,12.20
2017-10-17T02:52:23.158Z,12.20
2017-10-17T02:54:49.099Z,12.20
2017-10-17T02:57:15.102Z,12.10
2017-10-17T02:59:41.874Z,12.20
2017-10-17T03:02:09.423Z,12.20
2017-10-17T03:04:36.111Z,12.20
2017-10-17T03:07:02.049Z,12.20
2017-10-17T03:09:28.761Z,12.20
2017-10-17T03:11:54.710Z,12.20
2017-10-17T03:14:26.669Z,12.10
2017-10-17T03:16:52.634Z,12.10
2017-10-17T03:19:19.330Z,12.00
2017-10-17T03:21:50.322Z,12.00
2017-10-17T03:24:23.414Z,12.10
2017-10-17T03:26:49.411Z,12.10
2017-10-17T03:29:15.374Z,12.10
2017-10-17T03:31:42.066Z,12.10
2017-10-17T03:34:18.970Z,12.10
2017-10-17T03:36:45.662Z,12.10
2017-10-17T03:39:11.634Z,12.10
2017-10-17T03:41:37.614Z,12.10
2017-10-17T03:44:10.394Z,12.10
2017-10-17T03:46:45.823Z,12.10
2017-10-17T03:49:11.846Z,12.10
2017-10-17T03:51:37.798Z,12.10
2017-10-17T03:54:04.497Z,12.10
2017-10-17T03:56:30.479Z,12.00
2017-10-17T03:59:08.350Z,12.00
2017-10-17T04:01:34.302Z,11.90
2017-10-17T04:07:06.074Z,12.00
2017-10-17T04:09:36.990Z,11.90
2017-10-17T04:12:03.013Z,12.00
2017-10-17T04:17:34.325Z,12.00
2017-10-17T04:20:20.358Z,12.00
2017-10-17T04:22:59.226Z,11.90
2017-10-17T04:25:29.122Z,11.80
2017-10-17T04:28:03.953Z,11.80
2017-10-17T04:30:37.794Z,11.80
2017-10-17T04:33:19.605Z,11.80
2017-10-17T04:35:45.562Z,11.80
2017-10-17T04:38:11.518Z,11.90
2017-10-17T04:40:37.526Z,11.80
2017-10-17T04:43:15.769Z,11.90
2017-10-17T04:45:55.542Z,11.80
2017-10-17T04:51:28.244Z,11.70
2017-10-17T04:53:54.986Z,11.70
2017-10-17T04:56:22.485Z,11.80
2017-10-17T05:01:59.234Z,11.70
2017-10-17T05:04:30.263Z,11.70
2017-10-17T05:07:13.002Z,11.70
2017-10-17T05:09:40.681Z,11.70
2017-10-17T05:12:07.554Z,11.70
2017-10-17T05:14:46.798Z,11.70
2017-10-17T05:17:34.389Z,11.70
2017-10-17T05:20:02.177Z,11.70
2017-10-17T05:22:28.133Z,11.70
2017-10-17T05:24:57.147Z,11.70
2017-10-17T05:27:31.708Z,11.70
2017-10-17T05:33:11.222Z,11.80
2017-10-17T05:35:37.238Z,11.70
2017-10-17T05:38:03.226Z,11.70
2017-10-17T05:40:29.186Z,11.80
2017-10-17T05:42:55.166Z,11.80
2017-10-17T05:45:21.107Z,11.80
2017-10-17T05:47:49.889Z,11.70
2017-10-17T05:50:41.346Z,11.80
2017-10-17T05:53:07.348Z,11.70
2017-10-17T05:55:33.323Z,11.80
2017-10-17T05:58:00.061Z,11.70
2017-10-17T06:00:26.045Z,11.70
2017-10-17T06:02:51.994Z,11.80
2017-10-17T06:05:17.981Z,11.80
2017-10-17T06:07:43.970Z,11.80
2017-10-17T06:10:10.693Z,11.80
2017-10-17T06:12:37.387Z,11.80
2017-10-17T06:15:03.402Z,11.80
2017-10-17T06:17:29.385Z,11.90
2017-10-17T06:19:55.362Z,11.90
2017-10-17T06:22:22.052Z,12.00
2017-10-17T06:24:48.054Z,11.90
2017-10-17T06:27:14.007Z,12.00
2017-10-17T06:29:39.998Z,12.00
2017-10-17T06:32:06.710Z,12.10
2017-10-17T06:34:32.744Z,12.10
2017-10-17T06:36:59.477Z,12.20
2017-10-17T06:39:25.464Z,12.10
2017-10-17T06:41:51.450Z,12.20
2017-10-17T06:44:17.414Z,12.20
2017-10-17T06:46:43.382Z,12.30
2017-10-17T06:49:09.398Z,12.30
2017-10-17T06:51:35.342Z,12.30
2017-10-17T06:54:01.309Z,12.30
2017-10-17T06:56:27.323Z,12.40
2017-10-17T06:58:54.075Z,12.50
2017-10-17T07:01:20.027Z,12.50
2017-10-17T07:03:46.762Z,12.60
2017-10-17T07:06:13.454Z,12.60
2017-10-17T07:08:39.451Z,12.60
2017-10-17T07:11:05.435Z,12.70
2017-10-17T07:13:31.410Z,12.80
2017-10-17T07:15:58.147Z,13.00
2017-10-17T07:18:24.103Z,13.00
2017-10-17T07:20:50.084Z,13.00
2017-10-17T07:23:16.030Z,13.10
2017-10-17T07:25:42.017Z,13.10
2017-10-17T07:28:07.965Z,13.10
2017-10-17T07:30:34.678Z,13.30
2017-10-17T07:33:00.662Z,13.30
2017-10-17T07:35:26.615Z,13.40
2017-10-17T07:37:53.341Z,13.50
2017-10-17T07:40:20.022Z,13.50
2017-10-17T07:42:46.005Z,13.50
2017-10-17T07:45:11.971Z,13.60
2017-10-17T07:47:37.914Z,13.70
2017-10-17T07:50:03.894Z,13.70
2017-10-17T07:52:30.591Z,13.90
2017-10-17T07:54:56.586Z,13.90
2017-10-17T07:57:22.539Z,14.00
2017-10-17T07:59:49.297Z,14.20
2017-10-17T08:02:15.245Z,14.20
2017-10-17T08:04:41.240Z,14.20
2017-10-17T08:07:07.232Z,14.30
2017-10-17T08:09:33.186Z,14.40
2017-10-17T08:11:59.173Z,14.60
2017-10-17T08:14:25.130Z,14.70
2017-10-17T08:16:51.082Z,14.90
2017-10-17T08:19:17.086Z,15.00
2017-10-17T08:21:43.044Z,15.10
2017-10-17T08:24:09.765Z,15.30
2017-10-17T08:26:36.490Z,15.50
2017-10-17T08:29:03.220Z,15.60
2017-10-17T08:31:29.932Z,15.70
2017-10-17T08:33:55.963Z,15.70
2017-10-17T08:36:22.661Z,15.90
2017-10-17T08:38:48.609Z,15.90
2017-10-17T08:41:14.601Z,16.00
2017-10-17T08:43:41.290Z,16.20
2017-10-17T08:46:07.243Z,16.20
2017-10-17T08:48:33.249Z,16.30
2017-10-17T08:51:00.034Z,16.40
2017-10-17T08:53:26.002Z,16.40
2017-10-17T08:55:52.005Z,16.60
2017-10-17T08:58:18.021Z,16.60
2017-10-17T09:00:43.965Z,16.70
2017-10-17T09:03:10.713Z,16.90
2017-10-17T09:05:36.672Z,16.90
2017-10-17T09:08:02.686Z,16.90
2017-10-17T09:10:28.649Z,17.00
2017-10-17T09:12:54.670Z,17.10
2017-10-17T09:15:20.621Z,17.20
2017-10-17T09:17:46.582Z,17.30
2017-10-17T09:20:12.590Z,17.30
2017-10-17T09:22:38.543Z,17.60
2017-10-17T09:25:04.503Z,17.60
2017-10-17T09:27:30.562Z,17.70
2017-10-17T09:29:56.519Z,17.80
2017-10-17T09:32:22.473Z,17.90
2017-10-17T09:34:48.465Z,17.90
2017-10-17T09:37:14.418Z,18.00
2017-10-17T09:39:41.108Z,18.20
2017-10-17T09:42:07.091Z,18.20
2017-10-17T09:44:33.081Z,18.30
2017-10-17T09:46:59.035Z,18.40
2017-10-17T09:49:24.980Z,18.40
2017-10-17T09:51:51.735Z,18.50
2017-10-17T09:54:17.731Z,18.60
2017-10-17T09:56:43.682Z,18.60
2017-10-17T09:59:09.669Z,18.80
2017-10-17T10:01:35.633Z,18.80
2017-10-17T10:04:01.653Z,18.90
2017-10-17T10:06:27.643Z,18.90
2017-10-17T10:08:53.589Z,19.00
2017-10-17T10:11:20.320Z,19.10
2017-10-17T10:13:46.275Z,19.10
2017-10-17T10:16:19.314Z,19.10
2017-10-17T10:18:45.280Z,19.20
2017-10-17T10:21:11.266Z,19.40
2017-10-17T10:23:37.223Z,19.50
2017-10-17T10:26:03.182Z,19.50
2017-10-17T10:28:29.170Z,19.60
2017-10-17T10:30:55.189Z,19.60
2017-10-17T10:33:21.150Z,19.70
2017-10-17T10:35:47.854Z,19.90
2017-10-17T10:38:13.854Z,19.90
2017-10-17T10:40:39.805Z,20.10
2017-10-17T10:43:05.805Z,20.20
2017-10-17T10:45:32.554Z,20.40
2017-10-17T10:47:58.498Z,20.40
2017-10-17T10:50:24.458Z,20.40
2017-10-17T10:52:50.454Z,20.50
2017-10-17T10:55:17.154Z,20.70
2017-10-17T10:57:43.891Z,20.70
2017-10-17T11:00:10.625Z,20.80
2017-10-17T11:02:37.358Z,20.90
2017-10-17T11:05:03.353Z,20.90
2017-10-17T11:07:29.354Z,21.00
2017-10-17T11:09:55.347Z,21.20
2017-10-17T11:12:22.038Z,21.40
2017-10-17T11:14:48.050Z,21.30
2017-10-17T11:17:14.002Z,21.40
2017-10-17T11:19:40.010Z,21.50
2017-10-17T11:22:05.982Z,21.60
2017-10-17T11:24:31.967Z,21.60
2017-10-17T11:26:57.978Z,21.70
2017-10-17T11:29:23.938Z,21.80
2017-10-17T11:31:50.677Z,22.00
2017-10-17T11:34:16.680Z,22.00
2017-10-17T11:36:42.673Z,22.10
2017-10-17T11:39:09.459Z,22.20
2017-10-17T11:41:47.910Z,22.20
2017-10-17T11:44:14.656Z,22.10
2017-10-17T11:46:40.620Z,22.10
2017-10-17T11:49:06.578Z,22.20
2017-10-17T11:51:32.578Z,22.40
2017-10-17T11:53:58.591Z,22.50
2017-10-17T11:56:24.546Z,22.60
2017-10-17T11:58:50.526Z,22.70
2017-10-17T12:01:16.528Z,22.80
2017-10-17T12:03:42.486Z,23.00
2017-10-17T12:06:08.499Z,23.20
2017-10-17T12:08:35.276Z,23.60
2017-10-17T12:11:01.287Z,23.60
2017-10-17T12:13:27.286Z,23.90
2017-10-17T12:15:53.262Z,24.80
2017-10-17T12:18:19.955Z,26.20
2017-10-17T12:20:45.963Z,26.20
2017-10-17T12:23:11.948Z,26.50
2017-10-17T12:25:37.900Z,27.20
2017-10-17T12:28:04.643Z,27.20
2017-10-17T12:30:31.390Z,27.50
2017-10-17T12:32:57.402Z,27.40
2017-10-17T12:35:23.358Z,27.80
2017-10-17T12:37:49.349Z,27.60
2017-10-17T12:40:15.313Z,27.60
2017-10-17T12:42:41.306Z,27.60
2017-10-17T12:45:08.047Z,27.40
2017-10-17T12:47:34.059Z,27.40
2017-10-17T12:50:00.026Z,27.40
2017-10-17T12:52:26.031Z,27.70
2017-10-17T12:54:52.054Z,28.40
2017-10-17T12:57:18.005Z,28.50
2017-10-17T12:59:44.001Z,28.60
2017-10-17T13:02:09.958Z,28.60
2017-10-17T13:04:35.926Z,28.70
2017-10-17T13:07:01.986Z,29.30
2017-10-17T13:09:27.976Z,29.20
2017-10-17T13:11:53.938Z,29.40
2017-10-17T13:14:20.637Z,29.50
2017-10-17T13:16:47.372Z,29.70
2017-10-17T13:19:14.118Z,30.20
2017-10-17T13:21:40.114Z,30.10
2017-10-17T13:24:06.159Z,30.30
2017-10-17T13:26:32.154Z,30.20
2017-10-17T13:28:58.098Z,30.00
2017-10-17T13:31:24.115Z,29.80
2017-10-17T13:33:50.102Z,29.70
2017-10-17T13:36:16.077Z,29.70
2017-10-17T13:38:42.083Z,29.30
2017-10-17T13:41:08.066Z,29.70
2017-10-17T13:43:34.806Z,29.60
2017-10-17T13:46:01.504Z,29.60
2017-10-17T13:48:27.449Z,29.60
2017-10-17T13:50:53.454Z,29.50
2017-10-17T13:53:19.431Z,29.30
2017-10-17T13:55:45.426Z,29.40
2017-10-17T13:58:11.381Z,29.80
2017-10-17T14:00:37.336Z,29.90
2017-10-17T14:03:03.367Z,29.60
2017-10-17T14:05:29.323Z,29.30
2017-10-17T14:07:55.290Z,28.60
2017-10-17T14:10:21.290Z,28.20
2017-10-17T14:12:47.301Z,28.00
2017-10-17T14:15:13.287Z,27.60
2017-10-17T14:17:39.263Z,27.20
2017-10-17T14:20:05.246Z,27.00
2017-10-17T14:22:31.197Z,26.80
2017-10-17T14:24:57.199Z,26.60
2017-10-17T14:27:23.217Z,26.50
2017-10-17T14:29:49.238Z,26.20
2017-10-17T14:32:15.195Z,26.00
2017-10-17T14:34:41.142Z,25.90
2017-10-17T14:37:07.132Z,25.70
2017-10-17T14:39:33.092Z,25.70
2017-10-17T14:41:59.850Z,25.50
2017-10-17T14:44:25.822Z,25.50
2017-10-17T14:46:52.530Z,25.20
2017-10-17T14:49:18.574Z,25.20
2017-10-17T14:51:44.589Z,25.20
2017-10-17T14:54:10.549Z,25.00
2017-10-17T14:56:36.502Z,24.80
2017-10-17T14:59:02.498Z,24.80
2017-10-17T15:01:29.234Z,24.60
2017-10-17T15:03:55.233Z,24.50
2017-10-17T15:06:21.963Z,24.40
2017-10-17T15:08:48.729Z,24.30
2017-10-17T15:11:14.714Z,24.20
2017-10-17T15:13:40.721Z,24.20
2017-10-17T15:16:06.678Z,23.90
2017-10-17T15:18:32.647Z,23.80
2017-10-17T15:20:58.646Z,23.70
2017-10-17T15:23:24.611Z,23.60
2017-10-17T15:25:50.588Z,23.50
2017-10-17T15:28:16.569Z,23.40
2017-10-17T15:30:42.553Z,23.30
2017-10-17T15:33:09.257Z,23.10
2017-10-17T15:35:35.238Z,23.10
2017-10-17T15:38:01.258Z,23.00
2017-10-17T15:40:27.221Z,22.90
2017-10-17T15:42:53.181Z,22.80
2017-10-17T15:45:19.250Z,22.60
2017-10-17T15:47:45.210Z,22.50
2017-10-17T15:50:11.157Z,22.40
2017-10-17T15:52:37.140Z,22.30
2017-10-17T15:55:03.127Z,22.10
2017-10-17T15:57:29.117Z,22.10
2017-10-17T15:59:55.102Z,22.00
2017-10-17T16:02:21.100Z,22.00
2017-10-17T16:04:47.095Z,21.80
2017-10-17T16:07:13.785Z,21.50
2017-10-17T16:09:39.738Z,21.50
2017-10-17T16:12:05.717Z,21.40
2017-10-17T16:14:31.686Z,21.20
2017-10-17T16:17:04.682Z,21.10
2017-10-17T16:19:30.638Z,21.00
2017-10-17T16:21:56.591Z,20.90
2017-10-17T16:24:22.601Z,20.80
2017-10-17T16:26:48.693Z,20.50
2017-10-17T16:29:14.690Z,20.40
2017-10-17T16:31:40.671Z,20.40
2017-10-17T16:34:07.362Z,20.20
2017-10-17T16:36:33.354Z,20.10
2017-10-17T16:38:59.419Z,20.00
2017-10-17T16:41:26.109Z,19.80
2017-10-17T16:43:52.152Z,19.80
2017-10-17T16:46:18.162Z,19.80
2017-10-17T16:48:44.885Z,19.70
2017-10-17T16:51:11.582Z,19.60
2017-10-17T16:53:37.576Z,19.60
2017-10-17T16:56:03.578Z,19.50
2017-10-17T16:58:29.525Z,19.40
2017-10-17T17:00:55.594Z,19.30
2017-10-17T17:03:21.599Z,19.10
2017-10-17T17:05:47.567Z,18.90
2017-10-17T17:08:14.410Z,18.80
2017-10-17T17:10:40.398Z,18.80
2017-10-17T17:13:07.138Z,18.70
2017-10-17T17:15:33.984Z,18.50
2017-10-17T17:17:59.929Z,18.50
2017-10-17T17:20:25.934Z,18.40
2017-10-17T17:23:01.616Z,18.30
2017-10-17T17:25:27.655Z,18.30
2017-10-17T17:27:53.923Z,18.30
2017-10-17T17:30:19.953Z,18.30
2017-10-17T17:32:45.961Z,18.20
2017-10-17T17:35:12.673Z,18.10
2017-10-17T17:37:39.369Z,17.90
2017-10-17T17:40:05.497Z,17.90
2017-10-17T17:42:31.477Z,17.80
2017-10-17T17:44:57.454Z,17.70
2017-10-17T17:47:23.474Z,17.60
2017-10-17T17:49:49.486Z,17.60
2017-10-17T17:52:15.632Z,17.60
2017-10-17T17:54:41.614Z,17.50
2017-10-17T17:57:07.594Z,17.50
2017-10-17T17:59:33.573Z,17.30
2017-10-17T18:01:59.562Z,17.20
2017-10-17T18:04:25.791Z,17.10
2017-10-17T18:06:52.567Z,16.90
2017-10-17T18:09:18.710Z,16.90
2017-10-17T18:11:44.896Z,16.90
2017-10-17T18:14:10.911Z,16.80
2017-10-17T18:16:36.874Z,16.80
2017-10-17T18:19:02.857Z,16.80
2017-10-17T18:21:28.878Z,16.60
2017-10-17T18:23:55.134Z,16.60
2017-10-17T18:26:21.156Z,16.60
2017-10-17T18:28:47.146Z,16.60
2017-10-17T18:31:13.861Z,16.50
2017-10-17T18:33:39.870Z,16.50
2017-10-17T18:36:06.637Z,16.40
2017-10-17T18:38:32.650Z,16.40
2017-10-17T18:40:58.626Z,16.30
2017-10-17T18:43:24.590Z,16.20
2017-10-17T18:45:52.086Z,16.10
2017-10-17T18:48:18.133Z,16.10
2017-10-17T18:50:44.122Z,16.10
2017-10-17T18:53:10.104Z,16.00
2017-10-17T18:55:36.102Z,16.00
2017-10-17T18:58:02.878Z,15.90
2017-10-17T19:00:28.827Z,15.80
2017-10-17T19:02:55.595Z,15.70
2017-10-17T19:05:21.615Z,15.70
2017-10-17T19:07:47.571Z,15.70
2017-10-17T19:10:13.513Z,15.70
2017-10-17T19:12:39.478Z,15.60
2017-10-17T19:15:06.199Z,15.60
2017-10-17T19:17:32.214Z,15.60
2017-10-17T19:19:58.158Z,15.50
2017-10-17T19:22:24.160Z,15.40
2017-10-17T19:24:50.128Z,15.60
2017-10-17T19:27:16.074Z,15.40
2017-10-17T19:29:42.829Z,15.30
2017-10-17T19:32:08.787Z,15.30
2017-10-17T19:34:34.736Z,15.20
2017-10-17T19:37:00.760Z,15.20
2017-10-17T19:39:26.717Z,15.10
2017-10-17T19:41:53.422Z,15.00
2017-10-17T19:44:19.414Z,15.00
2017-10-17T19:46:45.372Z,15.00
2017-10-17T19:49:12.066Z,14.90
2017-10-17T19:51:38.053Z,14.90
2017-10-17T19:54:04.002Z,14.90
2017-10-17T19:56:30.699Z,14.80
2017-10-17T19:58:58.597Z,14.80
2017-10-17T20:01:24.618Z,14.70
2017-10-17T20:03:50.613Z,14.70
2017-10-17T20:06:16.603Z,14.70
2017-10-17T20:08:43.294Z,14.70
2017-10-17T20:11:09.277Z,14.70
2017-10-17T20:13:35.230Z,14.60
2017-10-17T20:16:01.174Z,14.70
2017-10-17T20:18:27.158Z,14.50
2017-10-17T20:20:53.866Z,14.30
2017-10-17T20:23:19.906Z,14.30
2017-10-17T20:25:45.861Z,14.20
2017-10-17T20:28:11.810Z,14.20
2017-10-17T20:30:37.798Z,14.20
2017-10-17T20:33:03.746Z,14.10
2017-10-17T20:35:29.682Z,14.20
2017-10-17T20:37:55.662Z,14.10
2017-10-17T20:40:21.627Z,14.10
2017-10-17T20:42:47.618Z,14.00
2017-10-17T20:45:13.557Z,14.00
2017-10-17T20:47:39.510Z,13.90
2017-10-17T20:50:05.495Z,13.80
2017-10-17T20:52:32.234Z,13.80
2017-10-17T20:54:58.212Z,13.70
2017-10-17T20:57:24.702Z,13.70
2017-10-17T20:59:51.055Z,13.70
2017-10-17T21:02:17.765Z,13.80
2017-10-17T21:04:44.137Z,13.70
2017-10-17T21:07:10.086Z,13.70
2017-10-17T21:09:36.034Z,13.70
2017-10-17T21:12:02.245Z,13.70
2017-10-17T21:14:28.539Z,13.70
2017-10-17T21:16:55.574Z,13.50
2017-10-17T21:19:22.272Z,13.50
2017-10-17T21:21:48.223Z,13.40
2017-10-17T21:24:14.954Z,13.50
2017-10-17T21:26:41.641Z,13.40
2017-10-17T21:29:07.595Z,13.40
2017-10-17T21:31:33.586Z,13.40
2017-10-17T21:34:00.286Z,13.30
2017-10-17T21:36:26.277Z,13.30
2017-10-17T21:38:52.242Z,13.20
2017-10-17T21:41:18.210Z,13.20
2017-10-17T21:43:44.198Z,13.20
2017-10-17T21:46:10.149Z,13.20
2017-10-17T21:48:36.894Z,13.20
2017-10-17T21:51:02.832Z,13.20
2017-10-17T21:53:28.782Z,13.20
2017-10-17T21:55:54.834Z,13.10
2017-10-17T21:58:20.813Z,13.20
2017-10-17T22:01:00.166Z,12.90
2017-10-17T22:03:26.121Z,12.90
2017-10-17T22:05:52.074Z,12.90
2017-10-17T22:08:18.077Z,12.90
2017-10-17T22:10:44.020Z,12.90
2017-10-17T22:13:09.975Z,12.80
2017-10-17T22:15:36.741Z,12.70
2017-10-17T22:18:02.721Z,12.70
2017-10-17T22:20:28.677Z,12.70
2017-10-17T22:22:54.681Z,12.70
2017-10-17T22:25:20.651Z,12.70
2017-10-17T22:27:46.641Z,12.60
2017-10-17T22:30:13.320Z,12.70
2017-10-17T22:32:39.264Z,12.70
2017-10-17T22:35:05.976Z,12.80
2017-10-17T22:37:31.957Z,12.80
2017-10-17T22:39:57.905Z,12.90
2017-10-17T22:42:24.690Z,13.10
2017-10-17T22:44:50.708Z,13.00
2017-10-17T22:47:16.649Z,12.90
2017-10-17T22:49:42.633Z,13.00
2017-10-17T22:52:08.595Z,13.00
2017-10-17T22:54:34.572Z,13.00
2017-10-17T22:57:00.516Z,12.90
2017-10-17T22:59:26.464Z,12.90
2017-10-17T23:01:52.458Z,13.00
2017-10-17T23:04:18.458Z,13.00
2017-10-17T23:06:44.453Z,12.90
2017-10-17T23:09:10.384Z,12.90
2017-10-17T23:11:36.373Z,12.90
2017-10-17T23:14:02.352Z,12.90
2017-10-17T23:16:29.025Z,12.90
2017-10-17T23:19:07.582Z,12.90
2017-10-17T23:21:34.291Z,12.90
2017-10-17T23:24:00.233Z,12.90
2017-10-17T23:26:26.228Z,12.90
2017-10-17T23:28:52.920Z,12.70
2017-10-17T23:31:18.898Z,12.70
2017-10-17T23:33:44.901Z,12.70
2017-10-17T23:36:10.845Z,12.60
2017-10-17T23:38:36.805Z,12.50
2017-10-17T23:41:02.813Z,12.60
2017-10-17T23:43:28.784Z,12.50
2017-10-17T23:45:54.734Z,12.50
2017-10-17T23:48:20.742Z,12.50
2017-10-17T23:50:46.693Z,12.40
2017-10-17T23:53:12.677Z,12.40
2017-10-17T23:55:38.674Z,12.30
2017-10-17T23:58:04.621Z,12.30
